Ocean Fresh — LAEZ7 — position and weather

sailwx.info

Track history (hours):
 
Tides and Currents Weather Stations Pressure Air Temp Water Temp Dewpoint Dewpoint Depression Visibility Wind Speed Wind Dir Waves Ship Positions

Ocean Fresh

Last reported at 2018-May-23 21:49 UTC. Time now 2018-Jul-20 21:40 UTC.
Position N 27°32' W 015°22'.
Warning: this ship's position is 57 days out of date.

; draft 7.1 m.

Type: Other ship. MMSI: 259758000.

Date/timePositionNaut miles runAvg speedWind from/ knotsBaromVisibWave heightAir tempDewpointWater temp
2018-May-23 21:49N 27°32' W 015°22'3 9.1
2018-May-23 21:28N 27°35' W 015°21'5 9.0
2018-May-23 20:57N 27°40' W 015°19'4 8.4
2018-May-23 20:30N 27°43' W 015°18'4 8.2
2018-May-23 20:00N 27°47' W 015°17'4 8.6
2018-May-23 19:30N 27°52' W 015°17'4 8.9
2018-May-23 19:00N 27°56' W 015°17'5 9.0
2018-May-23 18:30N 28°00' W 015°19'4 8.8
2018-May-23 18:00N 28°04' W 015°21'4 8.2
2018-May-23 17:30N 28°07' W 015°24'1 2.8
2018-May-23 17:00N 28°09' W 015°25'0 0.0
2018-May-23 16:30N 28°09' W 015°25'0 0.0
2018-May-23 16:00N 28°09' W 015°25'0 0.0
2018-May-23 15:30N 28°09' W 015°25'0 0.0
2018-May-23 15:00N 28°09' W 015°25'0 0.0
2018-May-23 14:27N 28°09' W 015°25'0 0.0
2018-May-23 14:00N 28°09' W 015°25'0 0.0
2018-May-23 13:30N 28°09' W 015°25'0 0.0
2018-May-23 13:00N 28°09' W 015°25'0 0.0
2018-May-23 12:30N 28°09' W 015°25'0 0.0
2018-May-23 12:00N 28°09' W 015°25'0 0.0
2018-May-23 11:29N 28°09' W 015°25'0 0.0
2018-May-23 11:00N 28°09' W 015°25'0 0.0
2018-May-23 10:30N 28°09' W 015°25'0 0.0
2018-May-23 10:00N 28°09' W 015°25'0 0.0
2018-May-23 09:30N 28°09' W 015°25'0 0.0
2018-May-23 08:58N 28°09' W 015°25'0 0.0
2018-May-23 08:29N 28°09' W 015°25'0 0.0
2018-May-23 08:00N 28°09' W 015°25'0 0.0
2018-May-23 07:30N 28°09' W 015°25'0 0.0
2018-May-23 07:00N 28°09' W 015°25'0 0.0
2018-May-23 06:30N 28°09' W 015°25'0 0.0
2018-May-23 06:00N 28°09' W 015°25'0 0.0
2018-May-23 05:30N 28°09' W 015°25'0 0.0
2018-May-23 05:00N 28°09' W 015°25'0 0.0
2018-May-23 04:30N 28°09' W 015°25'0 0.0
2018-May-23 03:59N 28°09' W 015°25'0 0.0
2018-May-23 03:30N 28°09' W 015°25'0 0.0
2018-May-23 03:00N 28°09' W 015°25'0 0.0
2018-May-23 02:30N 28°09' W 015°25'0 0.0
2018-May-23 02:00N 28°09' W 015°25'0 0.0
2018-May-23 01:30N 28°09' W 015°25'0 0.0
2018-May-23 01:00N 28°09' W 015°25'0 0.0
2018-May-23 00:30N 28°09' W 015°25'0 0.0
2018-May-23 00:00N 28°09' W 015°25'0 0.0
2018-May-22 23:30N 28°09' W 015°25'0 0.0
2018-May-22 23:00N 28°09' W 015°25'0 0.0
2018-May-22 22:30N 28°09' W 015°25'0 0.0
2018-May-22 22:00N 28°09' W 015°25'0 0.0
2018-May-22 21:30N 28°09' W 015°25'0 0.0
2018-May-22 21:00N 28°09' W 015°25'0 0.0
2018-May-22 20:29N 28°09' W 015°25'0 0.0
2018-May-22 20:00N 28°09' W 015°25'0 0.0
2018-May-22 19:30N 28°09' W 015°25'0 0.0
2018-May-22 19:00N 28°09' W 015°25'0 0.0
2018-May-22 18:30N 28°09' W 015°25'0 0.0
2018-May-22 17:59N 28°09' W 015°25'0 0.0
2018-May-22 17:30N 28°09' W 015°25'0 0.0
2018-May-22 17:00N 28°09' W 015°25'0 0.0
2018-May-22 16:30N 28°09' W 015°25'0 0.0
2018-May-22 16:00N 28°09' W 015°25'0 0.0
2018-May-22 15:30N 28°09' W 015°25'0 0.0
2018-May-22 15:00N 28°09' W 015°25'0 0.0
2018-May-22 14:30N 28°09' W 015°25'0 0.0
2018-May-22 13:58N 28°09' W 015°25'0 0.0
2018-May-22 13:30N 28°09' W 015°25'0 0.0
2018-May-22 13:00N 28°09' W 015°25'0 0.0
2018-May-22 12:30N 28°09' W 015°25'0 0.0
2018-May-22 12:00N 28°09' W 015°25'0 0.0
2018-May-22 11:30N 28°09' W 015°25'0 0.0
2018-May-22 11:00N 28°09' W 015°25'0 0.0
2018-May-22 10:30N 28°09' W 015°25'0 0.0
2018-May-22 10:00N 28°09' W 015°25'0 0.0
2018-May-22 09:30N 28°09' W 015°25'0 0.0
2018-May-22 09:00N 28°09' W 015°25'0 0.0
2018-May-22 08:30N 28°09' W 015°25'0 0.0
2018-May-22 07:59N 28°09' W 015°25'0 0.7
2018-May-22 07:30N 28°08' W 015°25'1 1.2
2018-May-22 07:00N 28°08' W 015°24'1 1.8
2018-May-22 06:30N 28°09' W 015°24'0 0.0
2018-May-22 06:00N 28°09' W 015°24'0 0.0
2018-May-22 05:30N 28°09' W 015°24'0 0.0
2018-May-22 05:00N 28°09' W 015°24'0 0.0
2018-May-22 04:30N 28°09' W 015°24'0 0.0
2018-May-22 04:00N 28°09' W 015°24'0 0.0
2018-May-22 03:30N 28°09' W 015°24'0 0.0
2018-May-22 03:00N 28°09' W 015°24'0 0.0
2018-May-22 02:30N 28°09' W 015°24'0 0.0
2018-May-22 02:00N 28°09' W 015°24'0 0.0
2018-May-22 01:30N 28°09' W 015°24'0 0.0
2018-May-22 01:00N 28°09' W 015°24'0 0.0
2018-May-22 00:30N 28°09' W 015°24'0 0.0
2018-May-22 00:00N 28°09' W 015°24'0 0.0
2018-May-21 23:29N 28°09' W 015°24'0 0.0
2018-May-21 22:59N 28°09' W 015°24'0 0.0
2018-May-21 22:30N 28°09' W 015°24'0 0.0
2018-May-21 21:59N 28°09' W 015°24'0 0.0
2018-May-21 21:30N 28°09' W 015°24'0 0.0
2018-May-21 21:00N 28°09' W 015°24'0 0.0
2018-May-21 20:30N 28°09' W 015°24'0 0.0
2018-May-21 20:00N 28°09' W 015°24'0 0.0
2018-May-21 19:30N 28°09' W 015°24'0 0.0
2018-May-21 19:00N 28°09' W 015°24'0 0.0
2018-May-21 18:28N 28°09' W 015°24'1 1.1
2018-May-21 18:00N 28°09' W 015°24'1 2.8
2018-May-21 17:30N 28°08' W 015°23'0 0.8
2018-May-21 17:00N 28°08' W 015°23'1 1.8
2018-May-21 16:28N 28°07' W 015°23'3 7.0
2018-May-21 16:00N 28°05' W 015°20'2 3.4
2018-May-21 15:30N 28°03' W 015°20'3 6.7
2018-May-21 15:00N 27°60' W 015°19'3 6.9
2018-May-21 14:30N 27°57' W 015°17'  
Track history (hours):
 
Tides and Currents Weather Stations Pressure Air Temp Water Temp Dewpoint Dewpoint Depression Visibility Wind Speed Wind Dir Waves Ship Positions

Ocean Fresh

Last reported at 2018-May-23 21:49 UTC. Time now 2018-Jul-20 21:40 UTC.
Position N 27°32' W 015°22'.
Warning: this ship's position is 57 days out of date.

; draft 7.1 m.

Type: Other ship. MMSI: 259758000.

Date/timePositionNaut miles runAvg speedWind from/ knotsBaromVisibWave heightAir tempDewpointWater temp
2018-May-23 21:49N 27°32' W 015°22'3 9.1
2018-May-23 21:28N 27°35' W 015°21'5 9.0
2018-May-23 20:57N 27°40' W 015°19'4 8.4
2018-May-23 20:30N 27°43' W 015°18'4 8.2
2018-May-23 20:00N 27°47' W 015°17'4 8.6
2018-May-23 19:30N 27°52' W 015°17'4 8.9
2018-May-23 19:00N 27°56' W 015°17'5 9.0
2018-May-23 18:30N 28°00' W 015°19'4 8.8
2018-May-23 18:00N 28°04' W 015°21'4 8.2
2018-May-23 17:30N 28°07' W 015°24'1 2.8
2018-May-23 17:00N 28°09' W 015°25'0 0.0
2018-May-23 16:30N 28°09' W 015°25'0 0.0
2018-May-23 16:00N 28°09' W 015°25'0 0.0
2018-May-23 15:30N 28°09' W 015°25'0 0.0
2018-May-23 15:00N 28°09' W 015°25'0 0.0
2018-May-23 14:27N 28°09' W 015°25'0 0.0
2018-May-23 14:00N 28°09' W 015°25'0 0.0
2018-May-23 13:30N 28°09' W 015°25'0 0.0
2018-May-23 13:00N 28°09' W 015°25'0 0.0
2018-May-23 12:30N 28°09' W 015°25'0 0.0
2018-May-23 12:00N 28°09' W 015°25'0 0.0
2018-May-23 11:29N 28°09' W 015°25'0 0.0
2018-May-23 11:00N 28°09' W 015°25'0 0.0
2018-May-23 10:30N 28°09' W 015°25'0 0.0
2018-May-23 10:00N 28°09' W 015°25'0 0.0
2018-May-23 09:30N 28°09' W 015°25'0 0.0
2018-May-23 08:58N 28°09' W 015°25'0 0.0
2018-May-23 08:29N 28°09' W 015°25'0 0.0
2018-May-23 08:00N 28°09' W 015°25'0 0.0
2018-May-23 07:30N 28°09' W 015°25'0 0.0
2018-May-23 07:00N 28°09' W 015°25'0 0.0
2018-May-23 06:30N 28°09' W 015°25'0 0.0
2018-May-23 06:00N 28°09' W 015°25'0 0.0
2018-May-23 05:30N 28°09' W 015°25'0 0.0
2018-May-23 05:00N 28°09' W 015°25'0 0.0
2018-May-23 04:30N 28°09' W 015°25'0 0.0
2018-May-23 03:59N 28°09' W 015°25'0 0.0
2018-May-23 03:30N 28°09' W 015°25'0 0.0
2018-May-23 03:00N 28°09' W 015°25'0 0.0
2018-May-23 02:30N 28°09' W 015°25'0 0.0
2018-May-23 02:00N 28°09' W 015°25'0 0.0
2018-May-23 01:30N 28°09' W 015°25'0 0.0
2018-May-23 01:00N 28°09' W 015°25'0 0.0
2018-May-23 00:30N 28°09' W 015°25'0 0.0
2018-May-23 00:00N 28°09' W 015°25'0 0.0
2018-May-22 23:30N 28°09' W 015°25'0 0.0
2018-May-22 23:00N 28°09' W 015°25'0 0.0
2018-May-22 22:30N 28°09' W 015°25'0 0.0
2018-May-22 22:00N 28°09' W 015°25'0 0.0
2018-May-22 21:30N 28°09' W 015°25'0 0.0
2018-May-22 21:00N 28°09' W 015°25'0 0.0
2018-May-22 20:29N 28°09' W 015°25'0 0.0
2018-May-22 20:00N 28°09' W 015°25'0 0.0
2018-May-22 19:30N 28°09' W 015°25'0 0.0
2018-May-22 19:00N 28°09' W 015°25'0 0.0
2018-May-22 18:30N 28°09' W 015°25'0 0.0
2018-May-22 17:59N 28°09' W 015°25'0 0.0
2018-May-22 17:30N 28°09' W 015°25'0 0.0
2018-May-22 17:00N 28°09' W 015°25'0 0.0
2018-May-22 16:30N 28°09' W 015°25'0 0.0
2018-May-22 16:00N 28°09' W 015°25'0 0.0
2018-May-22 15:30N 28°09' W 015°25'0 0.0
2018-May-22 15:00N 28°09' W 015°25'0 0.0
2018-May-22 14:30N 28°09' W 015°25'0 0.0
2018-May-22 13:58N 28°09' W 015°25'0 0.0
2018-May-22 13:30N 28°09' W 015°25'0 0.0
2018-May-22 13:00N 28°09' W 015°25'0 0.0
2018-May-22 12:30N 28°09' W 015°25'0 0.0
2018-May-22 12:00N 28°09' W 015°25'0 0.0
2018-May-22 11:30N 28°09' W 015°25'0 0.0
2018-May-22 11:00N 28°09' W 015°25'0 0.0
2018-May-22 10:30N 28°09' W 015°25'0 0.0
2018-May-22 10:00N 28°09' W 015°25'0 0.0
2018-May-22 09:30N 28°09' W 015°25'0 0.0
2018-May-22 09:00N 28°09' W 015°25'0 0.0
2018-May-22 08:30N 28°09' W 015°25'0 0.0
2018-May-22 07:59N 28°09' W 015°25'0 0.7
2018-May-22 07:30N 28°08' W 015°25'1 1.2
2018-May-22 07:00N 28°08' W 015°24'1 1.8
2018-May-22 06:30N 28°09' W 015°24'0 0.0
2018-May-22 06:00N 28°09' W 015°24'0 0.0
2018-May-22 05:30N 28°09' W 015°24'0 0.0
2018-May-22 05:00N 28°09' W 015°24'0 0.0
2018-May-22 04:30N 28°09' W 015°24'0 0.0
2018-May-22 04:00N 28°09' W 015°24'0 0.0
2018-May-22 03:30N 28°09' W 015°24'0 0.0
2018-May-22 03:00N 28°09' W 015°24'0 0.0
2018-May-22 02:30N 28°09' W 015°24'0 0.0
2018-May-22 02:00N 28°09' W 015°24'0 0.0
2018-May-22 01:30N 28°09' W 015°24'0 0.0
2018-May-22 01:00N 28°09' W 015°24'0 0.0
2018-May-22 00:30N 28°09' W 015°24'0 0.0
2018-May-22 00:00N 28°09' W 015°24'0 0.0
2018-May-21 23:29N 28°09' W 015°24'0 0.0
2018-May-21 22:59N 28°09' W 015°24'0 0.0
2018-May-21 22:30N 28°09' W 015°24'0 0.0
2018-May-21 21:59N 28°09' W 015°24'0 0.0
2018-May-21 21:30N 28°09' W 015°24'0 0.0
2018-May-21 21:00N 28°09' W 015°24'0 0.0
2018-May-21 20:30N 28°09' W 015°24'0 0.0
2018-May-21 20:00N 28°09' W 015°24'0 0.0
2018-May-21 19:30N 28°09' W 015°24'0 0.0
2018-May-21 19:00N 28°09' W 015°24'0 0.0
2018-May-21 18:28N 28°09' W 015°24'1 1.1
2018-May-21 18:00N 28°09' W 015°24'1 2.8
2018-May-21 17:30N 28°08' W 015°23'0 0.8
2018-May-21 17:00N 28°08' W 015°23'1 1.8
2018-May-21 16:28N 28°07' W 015°23'3 7.0
2018-May-21 16:00N 28°05' W 015°20'2 3.4
2018-May-21 15:30N 28°03' W 015°20'3 6.7
2018-May-21 15:00N 27°60' W 015°19'3 6.9
2018-May-21 14:30N 27°57' W 015°17'  

Dump ship's entire track history